AEE292 EDDH-LGAV
Flight info
| Callsign | AEE292 |
|---|---|
| Flight time | 2h 34m |
| Altitude | 35000 |
| Route | AMLUH2C/05 AMLUH M852 DENIX DCT ZUCKA DCT SODRO DCT RUDNO DCT LAMSI DCT LIMRA DCT MOSAV/N0457F370 DCT LURID DCT PODOB DCT MEDUX UM867 KOGAT DCT TALAS DCT SIGFO UM749 ROPOX |
| Aircraft | B739/M-SDE2E3FGHIRWXY/LB1 |
Departure
| Time | 2026-04-20 13:51 |
|---|---|
| Airport | Hamburg Helmut Schmidt Airport (EDDH) |
Arrival
| Time | 2026-04-20 16:26 |
|---|---|
| Airport | Athens Eleftherios Venizelos International Airport (LGAV) |
| Time | Latitude | Longitude | Altitude | Speed | Heading |
|---|---|---|---|---|---|
| 2026-04-20 13:18 | 53.62894 | 10.00207 | 50 ft | 0 kts | 122° |
| 2026-04-20 13:41 | 53.62902 | 10.00185 | 50 ft | 2 kts | 122° |
| 2026-04-20 13:41 | 53.62911 | 10.00162 | 50 ft | 2 kts | 124° |
| 2026-04-20 13:41 | 53.62924 | 10.00146 | 45 ft | 2 kts | 159° |
| 2026-04-20 13:41 | 53.62939 | 10.00137 | 46 ft | 2 kts | 178° |
| 2026-04-20 13:42 | 53.62955 | 10.00141 | 49 ft | 2 kts | 202° |
| 2026-04-20 13:42 | 53.62944 | 10.00128 | 47 ft | 2 kts | 211° |
| 2026-04-20 13:42 | 53.62943 | 10.00127 | 48 ft | 0 kts | 211° |
| 2026-04-20 13:46 | 53.62901 | 10.00083 | 50 ft | 15 kts | 211° |
| 2026-04-20 13:46 | 53.62823 | 9.99983 | 49 ft | 14 kts | 208° |
| 2026-04-20 13:46 | 53.62738 | 9.99903 | 48 ft | 14 kts | 209° |
| 2026-04-20 13:46 | 53.62653 | 9.99797 | 49 ft | 16 kts | 234° |
| 2026-04-20 13:47 | 53.62624 | 9.99627 | 49 ft | 15 kts | 259° |
| 2026-04-20 13:47 | 53.62605 | 9.99459 | 47 ft | 14 kts | 259° |
| 2026-04-20 13:47 | 53.62586 | 9.99299 | 50 ft | 14 kts | 259° |
| 2026-04-20 13:47 | 53.62567 | 9.99132 | 50 ft | 17 kts | 260° |
| 2026-04-20 13:48 | 53.62541 | 9.98899 | 50 ft | 22 kts | 258° |
| 2026-04-20 13:48 | 53.62511 | 9.98651 | 50 ft | 21 kts | 259° |
| 2026-04-20 13:48 | 53.62486 | 9.98408 | 50 ft | 21 kts | 260° |
| 2026-04-20 13:48 | 53.62452 | 9.98178 | 49 ft | 20 kts | 247° |
| 2026-04-20 13:49 | 53.62377 | 9.97985 | 49 ft | 19 kts | 231° |
| 2026-04-20 13:49 | 53.62292 | 9.97812 | 49 ft | 19 kts | 230° |
| 2026-04-20 13:49 | 53.62209 | 9.97647 | 49 ft | 18 kts | 231° |
| 2026-04-20 13:49 | 53.62180 | 9.97495 | 49 ft | 12 kts | 284° |
| 2026-04-20 13:50 | 53.62231 | 9.97391 | 49 ft | 12 kts | 326° |
| 2026-04-20 13:50 | 53.62307 | 9.97373 | 48 ft | 11 kts | 18° |
| 2026-04-20 13:50 | 53.62363 | 9.97460 | 47 ft | 11 kts | 48° |
| 2026-04-20 13:50 | 53.62473 | 9.97681 | 46 ft | 58 kts | 50° |
| 2026-04-20 13:51 | 53.62901 | 9.98545 | 48 ft | 129 kts | 50° |
| 2026-04-20 13:51 | 53.63574 | 9.99888 | 356 ft | 159 kts | 49° |
| 2026-04-20 13:51 | 53.64281 | 10.01333 | 1156 ft | 163 kts | 50° |
| 2026-04-20 13:51 | 53.64982 | 10.02749 | 2183 ft | 159 kts | 50° |
| 2026-04-20 13:52 | 53.65751 | 10.04304 | 2540 ft | 182 kts | 51° |
| 2026-04-20 13:52 | 53.66578 | 10.05982 | 3137 ft | 190 kts | 52° |
| 2026-04-20 13:52 | 53.67435 | 10.07734 | 3662 ft | 199 kts | 53° |
| 2026-04-20 13:52 | 53.68310 | 10.09526 | 4368 ft | 199 kts | 52° |
| 2026-04-20 13:53 | 53.69193 | 10.11343 | 4997 ft | 202 kts | 53° |
| 2026-04-20 13:53 | 53.70079 | 10.13157 | 5715 ft | 197 kts | 52° |
| 2026-04-20 13:53 | 53.70731 | 10.15174 | 6283 ft | 198 kts | 79° |
| 2026-04-20 13:53 | 53.70670 | 10.17436 | 6921 ft | 200 kts | 104° |
| 2026-04-20 13:54 | 53.69909 | 10.19532 | 7243 ft | 222 kts | 133° |
| 2026-04-20 13:54 | 53.68489 | 10.20795 | 7536 ft | 246 kts | 159° |
| 2026-04-20 13:54 | 53.66816 | 10.21557 | 8042 ft | 252 kts | 160° |
| 2026-04-20 13:54 | 53.65105 | 10.22322 | 8588 ft | 255 kts | 160° |
| 2026-04-20 13:55 | 53.63388 | 10.23085 | 9184 ft | 258 kts | 160° |
| 2026-04-20 13:55 | 53.61586 | 10.23894 | 9506 ft | 276 kts | 160° |
| 2026-04-20 13:55 | 53.59704 | 10.24741 | 10175 ft | 281 kts | 160° |
| 2026-04-20 13:55 | 53.57784 | 10.25606 | 10649 ft | 295 kts | 160° |
| 2026-04-20 13:56 | 53.55721 | 10.26537 | 10805 ft | 318 kts | 161° |
| 2026-04-20 13:56 | 53.53519 | 10.27534 | 10991 ft | 339 kts | 161° |
| 2026-04-20 13:56 | 53.51166 | 10.28588 | 11135 ft | 359 kts | 161° |
| 2026-04-20 13:56 | 53.48747 | 10.29677 | 11569 ft | 368 kts | 161° |
| 2026-04-20 13:57 | 53.46232 | 10.30808 | 12190 ft | 372 kts | 162° |
| 2026-04-20 13:57 | 53.43750 | 10.31921 | 12785 ft | 376 kts | 162° |
| 2026-04-20 13:57 | 53.41204 | 10.33063 | 13357 ft | 381 kts | 162° |
| 2026-04-20 13:57 | 53.38624 | 10.34222 | 13917 ft | 386 kts | 162° |
| 2026-04-20 13:58 | 53.36026 | 10.35388 | 14444 ft | 389 kts | 162° |
| 2026-04-20 13:58 | 53.33393 | 10.36567 | 14968 ft | 393 kts | 162° |
| 2026-04-20 13:58 | 53.30738 | 10.37755 | 15500 ft | 396 kts | 162° |
| 2026-04-20 13:58 | 53.28062 | 10.38952 | 16044 ft | 399 kts | 162° |
| 2026-04-20 13:59 | 53.25376 | 10.40150 | 16578 ft | 402 kts | 162° |
| 2026-04-20 13:59 | 53.22655 | 10.41363 | 17089 ft | 406 kts | 162° |
| 2026-04-20 13:59 | 53.19922 | 10.42580 | 17625 ft | 409 kts | 162° |
| 2026-04-20 13:59 | 53.17157 | 10.43810 | 18147 ft | 412 kts | 162° |
| 2026-04-20 14:00 | 53.14371 | 10.45047 | 18619 ft | 415 kts | 162° |
| 2026-04-20 14:00 | 53.11562 | 10.46207 | 19078 ft | 418 kts | 165° |
| 2026-04-20 14:00 | 53.08687 | 10.47176 | 19557 ft | 421 kts | 167° |
| 2026-04-20 14:00 | 53.05803 | 10.48060 | 20006 ft | 424 kts | 168° |
| 2026-04-20 14:01 | 53.02884 | 10.48926 | 20458 ft | 427 kts | 168° |
| 2026-04-20 14:01 | 52.99949 | 10.49797 | 20914 ft | 429 kts | 168° |
| 2026-04-20 14:01 | 52.96994 | 10.50684 | 21362 ft | 432 kts | 168° |
| 2026-04-20 14:01 | 52.94031 | 10.51584 | 21804 ft | 434 kts | 167° |
| 2026-04-20 14:02 | 52.91049 | 10.52498 | 22238 ft | 437 kts | 167° |
| 2026-04-20 14:02 | 52.88051 | 10.53422 | 22663 ft | 439 kts | 167° |
| 2026-04-20 14:02 | 52.85042 | 10.54350 | 23079 ft | 442 kts | 167° |
| 2026-04-20 14:02 | 52.82041 | 10.55276 | 23483 ft | 445 kts | 167° |
| 2026-04-20 14:03 | 52.78987 | 10.56218 | 23854 ft | 447 kts | 167° |
| 2026-04-20 14:03 | 52.75925 | 10.57161 | 24195 ft | 450 kts | 167° |
| 2026-04-20 14:03 | 52.72796 | 10.58123 | 24558 ft | 451 kts | 167° |
| 2026-04-20 14:03 | 52.69702 | 10.59072 | 24902 ft | 453 kts | 167° |
| 2026-04-20 14:04 | 52.66636 | 10.60011 | 25222 ft | 455 kts | 167° |
| 2026-04-20 14:04 | 52.63514 | 10.60966 | 25570 ft | 457 kts | 167° |
| 2026-04-20 14:04 | 52.60381 | 10.61922 | 25926 ft | 458 kts | 167° |
| 2026-04-20 14:04 | 52.57238 | 10.62881 | 26270 ft | 460 kts | 167° |
| 2026-04-20 14:05 | 52.54087 | 10.63840 | 26613 ft | 462 kts | 167° |
| 2026-04-20 14:05 | 52.50923 | 10.64802 | 26932 ft | 463 kts | 167° |
| 2026-04-20 14:05 | 52.47747 | 10.65766 | 27248 ft | 465 kts | 167° |
| 2026-04-20 14:05 | 52.44558 | 10.66733 | 27576 ft | 466 kts | 167° |
| 2026-04-20 14:06 | 52.41358 | 10.67701 | 27909 ft | 468 kts | 167° |
| 2026-04-20 14:06 | 52.38149 | 10.68671 | 28270 ft | 470 kts | 167° |
| 2026-04-20 14:06 | 52.34930 | 10.69643 | 28678 ft | 470 kts | 167° |
| 2026-04-20 14:06 | 52.31726 | 10.70607 | 29214 ft | 467 kts | 167° |
| 2026-04-20 14:07 | 52.28543 | 10.71564 | 29746 ft | 464 kts | 167° |
| 2026-04-20 14:07 | 52.25374 | 10.72515 | 30171 ft | 463 kts | 167° |
| 2026-04-20 14:07 | 52.22211 | 10.73464 | 30459 ft | 463 kts | 167° |
| 2026-04-20 14:07 | 52.19033 | 10.74417 | 30669 ft | 465 kts | 167° |
| 2026-04-20 14:08 | 52.15842 | 10.75372 | 30897 ft | 466 kts | 167° |
| 2026-04-20 14:08 | 52.12653 | 10.76325 | 31175 ft | 466 kts | 167° |
| 2026-04-20 14:08 | 52.09454 | 10.77280 | 31443 ft | 466 kts | 168° |
| 2026-04-20 14:08 | 52.06303 | 10.78219 | 31666 ft | 467 kts | 168° |
| 2026-04-20 14:09 | 52.03059 | 10.79184 | 31867 ft | 468 kts | 168° |
| 2026-04-20 14:09 | 51.99889 | 10.80125 | 32108 ft | 469 kts | 168° |
| 2026-04-20 14:09 | 51.96679 | 10.81077 | 32343 ft | 470 kts | 168° |
| 2026-04-20 14:09 | 51.93456 | 10.82032 | 32548 ft | 471 kts | 168° |
| 2026-04-20 14:10 | 51.90236 | 10.82984 | 32755 ft | 472 kts | 169° |
| 2026-04-20 14:10 | 51.86989 | 10.83943 | 32952 ft | 473 kts | 169° |
| 2026-04-20 14:10 | 51.83745 | 10.84899 | 33176 ft | 474 kts | 169° |
| 2026-04-20 14:10 | 51.80505 | 10.85854 | 33442 ft | 474 kts | 170° |
| 2026-04-20 14:11 | 51.77258 | 10.86808 | 33668 ft | 475 kts | 170° |
| 2026-04-20 14:11 | 51.74007 | 10.87763 | 33870 ft | 475 kts | 170° |
| 2026-04-20 14:11 | 51.70747 | 10.88719 | 34088 ft | 476 kts | 170° |
| 2026-04-20 14:11 | 51.67516 | 10.89896 | 34277 ft | 476 kts | 163° |
| 2026-04-20 14:12 | 51.64425 | 10.91803 | 34410 ft | 478 kts | 154° |
| 2026-04-20 14:12 | 51.61434 | 10.94174 | 34583 ft | 478 kts | 154° |
| 2026-04-20 14:12 | 51.58502 | 10.96552 | 34738 ft | 478 kts | 153° |
| 2026-04-20 14:12 | 51.55535 | 10.98961 | 34895 ft | 478 kts | 154° |
| 2026-04-20 14:13 | 51.52559 | 11.01358 | 35047 ft | 479 kts | 154° |
| 2026-04-20 14:13 | 51.49570 | 11.03739 | 35104 ft | 480 kts | 154° |
| 2026-04-20 14:13 | 51.43566 | 11.08468 | 35109 ft | 480 kts | 154° |
| 2026-04-20 14:14 | 51.37560 | 11.13159 | 35104 ft | 479 kts | 155° |
| 2026-04-20 14:14 | 51.31581 | 11.17815 | 35119 ft | 478 kts | 155° |
| 2026-04-20 14:15 | 51.25600 | 11.22461 | 35111 ft | 478 kts | 155° |
| 2026-04-20 14:15 | 51.19611 | 11.27101 | 35114 ft | 478 kts | 155° |
| 2026-04-20 14:16 | 51.13617 | 11.31733 | 35116 ft | 479 kts | 155° |
| 2026-04-20 14:16 | 51.07599 | 11.36369 | 35089 ft | 482 kts | 155° |
| 2026-04-20 14:17 | 51.01548 | 11.41018 | 35109 ft | 483 kts | 155° |
| 2026-04-20 14:17 | 50.95483 | 11.45663 | 35111 ft | 485 kts | 155° |
| 2026-04-20 14:18 | 50.89393 | 11.50315 | 35098 ft | 486 kts | 155° |
| 2026-04-20 14:18 | 50.83305 | 11.54951 | 35114 ft | 486 kts | 155° |
| 2026-04-20 14:19 | 50.77187 | 11.59596 | 35105 ft | 487 kts | 155° |
| 2026-04-20 14:19 | 50.71072 | 11.64226 | 35110 ft | 488 kts | 155° |
| 2026-04-20 14:20 | 50.64943 | 11.68853 | 35090 ft | 488 kts | 156° |
| 2026-04-20 14:20 | 50.58814 | 11.73467 | 35105 ft | 488 kts | 156° |
| 2026-04-20 14:21 | 50.52696 | 11.78061 | 35096 ft | 487 kts | 156° |
| 2026-04-20 14:21 | 50.46610 | 11.82616 | 35087 ft | 487 kts | 156° |
| 2026-04-20 14:22 | 50.40397 | 11.86871 | 35070 ft | 487 kts | 160° |
| 2026-04-20 14:22 | 50.34109 | 11.90813 | 35074 ft | 487 kts | 160° |
| 2026-04-20 14:23 | 50.27809 | 11.94778 | 35081 ft | 488 kts | 160° |
| 2026-04-20 14:23 | 50.21520 | 11.98794 | 35081 ft | 489 kts | 160° |
| 2026-04-20 14:24 | 50.15219 | 12.02833 | 35078 ft | 490 kts | 160° |
| 2026-04-20 14:24 | 50.08913 | 12.06866 | 35087 ft | 490 kts | 160° |
| 2026-04-20 14:25 | 50.03667 | 12.10209 | 35083 ft | 491 kts | 160° |
| 2026-04-20 14:25 | 49.97335 | 12.14232 | 35086 ft | 491 kts | 160° |
| 2026-04-20 14:26 | 49.91007 | 12.18240 | 35070 ft | 492 kts | 160° |
| 2026-04-20 14:26 | 49.84657 | 12.22251 | 35068 ft | 492 kts | 160° |
| 2026-04-20 14:27 | 49.78308 | 12.26251 | 35064 ft | 493 kts | 161° |
| 2026-04-20 14:27 | 49.71945 | 12.30247 | 35060 ft | 494 kts | 161° |
| 2026-04-20 14:28 | 49.65573 | 12.34238 | 35060 ft | 494 kts | 161° |
| 2026-04-20 14:28 | 49.59195 | 12.38222 | 35063 ft | 494 kts | 161° |
| 2026-04-20 14:29 | 49.52819 | 12.42194 | 35067 ft | 494 kts | 161° |
| 2026-04-20 14:29 | 49.46434 | 12.46160 | 35068 ft | 494 kts | 161° |
| 2026-04-20 14:30 | 49.40055 | 12.50113 | 35062 ft | 494 kts | 161° |
| 2026-04-20 14:30 | 49.33878 | 12.54630 | 35056 ft | 499 kts | 149° |
| 2026-04-20 14:31 | 49.28585 | 12.61535 | 35074 ft | 502 kts | 136° |
| 2026-04-20 14:31 | 49.23722 | 12.69253 | 35060 ft | 503 kts | 135° |
| 2026-04-20 14:32 | 49.18844 | 12.76941 | 35065 ft | 504 kts | 136° |
| 2026-04-20 14:32 | 49.13912 | 12.84578 | 35062 ft | 505 kts | 136° |
| 2026-04-20 14:33 | 49.08958 | 12.92183 | 35059 ft | 505 kts | 136° |
| 2026-04-20 14:33 | 49.03987 | 12.99790 | 35057 ft | 506 kts | 137° |
| 2026-04-20 14:34 | 48.99009 | 13.07391 | 35057 ft | 507 kts | 137° |
| 2026-04-20 14:34 | 48.94027 | 13.14980 | 35057 ft | 507 kts | 137° |
| 2026-04-20 14:35 | 48.89026 | 13.22573 | 35051 ft | 507 kts | 137° |
| 2026-04-20 14:35 | 48.84028 | 13.30140 | 35045 ft | 508 kts | 137° |
| 2026-04-20 14:36 | 48.79019 | 13.37700 | 35046 ft | 507 kts | 137° |
| 2026-04-20 14:36 | 48.74010 | 13.45240 | 35050 ft | 507 kts | 137° |
| 2026-04-20 14:37 | 48.68995 | 13.52768 | 35039 ft | 508 kts | 137° |
| 2026-04-20 14:37 | 48.63895 | 13.60174 | 35036 ft | 506 kts | 143° |
| 2026-04-20 14:38 | 48.58409 | 13.66735 | 35036 ft | 505 kts | 146° |
| 2026-04-20 14:38 | 48.52817 | 13.73156 | 35040 ft | 505 kts | 146° |
| 2026-04-20 14:39 | 48.47240 | 13.79637 | 35038 ft | 506 kts | 145° |
| 2026-04-20 14:39 | 48.41681 | 13.86161 | 35023 ft | 506 kts | 145° |
| 2026-04-20 14:40 | 48.36121 | 13.92689 | 35032 ft | 507 kts | 145° |
| 2026-04-20 14:40 | 48.30550 | 13.99207 | 35020 ft | 507 kts | 145° |
| 2026-04-20 14:41 | 48.24970 | 14.05710 | 35026 ft | 508 kts | 146° |
| 2026-04-20 14:41 | 48.19375 | 14.12212 | 35013 ft | 509 kts | 146° |
| 2026-04-20 14:42 | 48.13777 | 14.18699 | 35020 ft | 509 kts | 146° |
| 2026-04-20 14:42 | 48.08169 | 14.25180 | 35030 ft | 510 kts | 146° |
| 2026-04-20 14:43 | 48.02547 | 14.31659 | 35022 ft | 511 kts | 146° |
| 2026-04-20 14:43 | 47.96901 | 14.38149 | 35025 ft | 511 kts | 146° |
| 2026-04-20 14:44 | 47.91302 | 14.44569 | 35034 ft | 511 kts | 146° |
| 2026-04-20 14:44 | 47.85613 | 14.50967 | 35030 ft | 513 kts | 147° |
| 2026-04-20 14:45 | 47.79884 | 14.57304 | 35019 ft | 514 kts | 147° |
| 2026-04-20 14:45 | 47.74131 | 14.63655 | 35003 ft | 515 kts | 147° |
| 2026-04-20 14:46 | 47.68386 | 14.70001 | 35002 ft | 514 kts | 148° |
| 2026-04-20 14:46 | 47.62646 | 14.76332 | 34997 ft | 514 kts | 148° |
| 2026-04-20 14:47 | 47.56903 | 14.82650 | 34996 ft | 513 kts | 148° |
| 2026-04-20 14:48 | 47.48336 | 14.92036 | 34964 ft | 513 kts | 148° |
| 2026-04-20 14:48 | 47.42593 | 14.98306 | 34966 ft | 512 kts | 148° |
| 2026-04-20 14:49 | 47.36853 | 15.04555 | 34957 ft | 512 kts | 148° |
| 2026-04-20 14:49 | 47.31110 | 15.10790 | 34971 ft | 512 kts | 148° |
| 2026-04-20 14:50 | 47.25357 | 15.17020 | 34968 ft | 513 kts | 148° |
| 2026-04-20 14:50 | 47.19613 | 15.23223 | 34965 ft | 512 kts | 148° |
| 2026-04-20 14:51 | 47.13895 | 15.29382 | 34964 ft | 511 kts | 149° |
| 2026-04-20 14:51 | 47.08153 | 15.35546 | 34991 ft | 512 kts | 149° |
| 2026-04-20 14:52 | 47.02391 | 15.41716 | 35000 ft | 513 kts | 149° |
| 2026-04-20 14:52 | 46.96605 | 15.47895 | 34988 ft | 515 kts | 149° |
| 2026-04-20 14:53 | 46.90794 | 15.54084 | 35001 ft | 517 kts | 149° |
| 2026-04-20 14:53 | 46.84958 | 15.60283 | 35011 ft | 519 kts | 149° |
| 2026-04-20 14:54 | 46.79098 | 15.66491 | 35016 ft | 521 kts | 149° |
| 2026-04-20 14:54 | 46.73223 | 15.72698 | 35023 ft | 521 kts | 149° |
| 2026-04-20 14:55 | 46.67333 | 15.78904 | 35026 ft | 522 kts | 149° |
| 2026-04-20 14:55 | 46.61476 | 15.85058 | 35014 ft | 522 kts | 149° |
| 2026-04-20 14:56 | 46.55600 | 15.91216 | 35018 ft | 520 kts | 149° |
| 2026-04-20 14:56 | 46.49734 | 15.97346 | 35017 ft | 518 kts | 149° |
| 2026-04-20 14:57 | 46.43887 | 16.03439 | 35022 ft | 517 kts | 149° |
| 2026-04-20 14:57 | 46.38047 | 16.09508 | 35032 ft | 515 kts | 149° |
| 2026-04-20 14:58 | 46.32231 | 16.15536 | 35035 ft | 514 kts | 149° |
| 2026-04-20 14:58 | 46.26411 | 16.21552 | 35042 ft | 513 kts | 149° |
| 2026-04-20 14:59 | 46.20608 | 16.27533 | 35043 ft | 512 kts | 149° |
| 2026-04-20 14:59 | 46.14809 | 16.33496 | 35039 ft | 512 kts | 149° |
| 2026-04-20 15:00 | 46.09026 | 16.39427 | 35035 ft | 512 kts | 149° |
| 2026-04-20 15:00 | 46.03223 | 16.45363 | 35039 ft | 511 kts | 149° |
| 2026-04-20 15:01 | 45.97418 | 16.51284 | 35040 ft | 511 kts | 149° |
| 2026-04-20 15:01 | 45.91608 | 16.57196 | 35041 ft | 511 kts | 149° |
| 2026-04-20 15:02 | 45.85794 | 16.63096 | 35034 ft | 511 kts | 149° |
| 2026-04-20 15:02 | 45.79985 | 16.68977 | 35034 ft | 511 kts | 149° |
| 2026-04-20 15:03 | 45.74176 | 16.74841 | 35194 ft | 512 kts | 149° |
| 2026-04-20 15:03 | 45.71264 | 16.77776 | 35454 ft | 509 kts | 149° |
| 2026-04-20 15:03 | 45.68408 | 16.80651 | 35693 ft | 507 kts | 149° |
| 2026-04-20 15:03 | 45.65528 | 16.83547 | 35930 ft | 506 kts | 149° |
| 2026-04-20 15:04 | 45.62652 | 16.86434 | 36164 ft | 504 kts | 149° |
| 2026-04-20 15:04 | 45.59782 | 16.89314 | 36425 ft | 502 kts | 149° |
| 2026-04-20 15:04 | 45.56930 | 16.92170 | 36667 ft | 500 kts | 148° |
| 2026-04-20 15:04 | 45.54099 | 16.95046 | 36844 ft | 500 kts | 147° |
| 2026-04-20 15:05 | 45.51332 | 16.98048 | 36980 ft | 499 kts | 145° |
| 2026-04-20 15:05 | 45.46795 | 17.03168 | 37008 ft | 501 kts | 144° |
| 2026-04-20 15:06 | 45.41314 | 17.09343 | 37010 ft | 502 kts | 145° |
| 2026-04-20 15:06 | 45.35797 | 17.15459 | 37017 ft | 503 kts | 145° |
| 2026-04-20 15:07 | 45.30254 | 17.21553 | 37004 ft | 503 kts | 145° |
| 2026-04-20 15:07 | 45.24719 | 17.27625 | 37008 ft | 503 kts | 145° |
| 2026-04-20 15:08 | 45.19187 | 17.33684 | 37000 ft | 502 kts | 145° |
| 2026-04-20 15:08 | 45.13664 | 17.39719 | 37016 ft | 501 kts | 145° |
| 2026-04-20 15:09 | 45.08174 | 17.45826 | 37003 ft | 501 kts | 144° |
| 2026-04-20 15:09 | 45.02736 | 17.51969 | 37013 ft | 500 kts | 144° |
| 2026-04-20 15:10 | 44.97298 | 17.58096 | 37014 ft | 499 kts | 144° |
| 2026-04-20 15:10 | 44.91863 | 17.64184 | 36999 ft | 499 kts | 144° |
| 2026-04-20 15:11 | 44.86450 | 17.70224 | 37000 ft | 498 kts | 144° |
| 2026-04-20 15:11 | 44.81010 | 17.76277 | 36991 ft | 498 kts | 144° |
| 2026-04-20 15:12 | 44.75575 | 17.82310 | 36990 ft | 497 kts | 144° |
| 2026-04-20 15:12 | 44.70143 | 17.88327 | 36985 ft | 497 kts | 144° |
| 2026-04-20 15:13 | 44.64698 | 17.94343 | 36976 ft | 497 kts | 144° |
| 2026-04-20 15:13 | 44.59257 | 18.00339 | 36980 ft | 497 kts | 144° |
| 2026-04-20 15:14 | 44.53813 | 18.06325 | 36962 ft | 497 kts | 144° |
| 2026-04-20 15:14 | 44.48366 | 18.12299 | 36967 ft | 497 kts | 144° |
| 2026-04-20 15:15 | 44.42952 | 18.18223 | 36969 ft | 496 kts | 144° |
| 2026-04-20 15:15 | 44.37502 | 18.24172 | 36956 ft | 496 kts | 144° |
| 2026-04-20 15:16 | 44.32057 | 18.30100 | 36967 ft | 495 kts | 144° |
| 2026-04-20 15:16 | 44.26617 | 18.36009 | 36946 ft | 495 kts | 144° |
| 2026-04-20 15:17 | 44.21185 | 18.41895 | 36947 ft | 494 kts | 144° |
| 2026-04-20 15:17 | 44.15755 | 18.47764 | 36939 ft | 494 kts | 144° |
| 2026-04-20 15:18 | 44.10325 | 18.53620 | 36944 ft | 494 kts | 144° |
| 2026-04-20 15:18 | 44.04926 | 18.59428 | 36938 ft | 493 kts | 144° |
| 2026-04-20 15:19 | 43.99491 | 18.65262 | 36936 ft | 493 kts | 144° |
| 2026-04-20 15:19 | 43.94053 | 18.71085 | 36935 ft | 493 kts | 144° |
| 2026-04-20 15:20 | 43.88621 | 18.76888 | 36935 ft | 493 kts | 145° |
| 2026-04-20 15:20 | 43.83186 | 18.82680 | 36933 ft | 493 kts | 145° |
| 2026-04-20 15:21 | 43.77754 | 18.88455 | 36930 ft | 492 kts | 145° |
| 2026-04-20 15:21 | 43.72314 | 18.94225 | 36932 ft | 492 kts | 145° |
| 2026-04-20 15:22 | 43.66881 | 18.99976 | 36929 ft | 492 kts | 145° |
| 2026-04-20 15:22 | 43.61429 | 19.05732 | 36944 ft | 493 kts | 145° |
| 2026-04-20 15:23 | 43.55999 | 19.11454 | 36936 ft | 494 kts | 145° |
| 2026-04-20 15:23 | 43.50546 | 19.17268 | 36937 ft | 495 kts | 143° |
| 2026-04-20 15:24 | 43.45236 | 19.23320 | 36947 ft | 496 kts | 142° |
| 2026-04-20 15:24 | 43.39971 | 19.29382 | 36941 ft | 496 kts | 142° |
| 2026-04-20 15:25 | 43.34656 | 19.35434 | 36944 ft | 496 kts | 142° |
| 2026-04-20 15:25 | 43.29324 | 19.41455 | 36947 ft | 496 kts | 143° |
| 2026-04-20 15:26 | 43.23989 | 19.47457 | 36950 ft | 496 kts | 143° |
| 2026-04-20 15:26 | 43.18648 | 19.53455 | 36950 ft | 496 kts | 143° |
| 2026-04-20 15:27 | 43.13310 | 19.59438 | 36952 ft | 496 kts | 143° |
| 2026-04-20 15:27 | 43.07966 | 19.65413 | 36954 ft | 495 kts | 143° |
| 2026-04-20 15:28 | 43.02654 | 19.71340 | 36949 ft | 495 kts | 143° |
| 2026-04-20 15:28 | 42.97311 | 19.77287 | 36971 ft | 495 kts | 143° |
| 2026-04-20 15:29 | 42.91971 | 19.83217 | 36968 ft | 495 kts | 143° |
| 2026-04-20 15:29 | 42.86621 | 19.89146 | 36964 ft | 496 kts | 143° |
| 2026-04-20 15:30 | 42.81257 | 19.95078 | 36966 ft | 496 kts | 143° |
| 2026-04-20 15:30 | 42.75891 | 20.01010 | 36970 ft | 497 kts | 141° |
| 2026-04-20 15:31 | 42.71177 | 20.07877 | 36980 ft | 498 kts | 130° |
| 2026-04-20 15:31 | 42.66837 | 20.15205 | 36966 ft | 498 kts | 129° |
| 2026-04-20 15:32 | 42.62470 | 20.22532 | 36965 ft | 497 kts | 130° |
| 2026-04-20 15:32 | 42.58092 | 20.29753 | 36970 ft | 497 kts | 130° |
| 2026-04-20 15:33 | 42.53687 | 20.36972 | 36958 ft | 497 kts | 130° |
| 2026-04-20 15:33 | 42.49275 | 20.44185 | 36966 ft | 497 kts | 130° |
| 2026-04-20 15:34 | 42.44863 | 20.51383 | 36961 ft | 497 kts | 130° |
| 2026-04-20 15:34 | 42.40437 | 20.58588 | 36985 ft | 497 kts | 130° |
| 2026-04-20 15:35 | 42.36012 | 20.65775 | 36974 ft | 497 kts | 130° |
| 2026-04-20 15:35 | 42.31578 | 20.72958 | 36976 ft | 497 kts | 130° |
| 2026-04-20 15:36 | 42.27137 | 20.80137 | 36994 ft | 498 kts | 130° |
| 2026-04-20 15:36 | 42.22684 | 20.87316 | 36987 ft | 499 kts | 130° |
| 2026-04-20 15:37 | 42.18230 | 20.94482 | 36969 ft | 499 kts | 130° |
| 2026-04-20 15:37 | 42.13769 | 21.01644 | 36954 ft | 499 kts | 130° |
| 2026-04-20 15:38 | 42.08734 | 21.07982 | 36984 ft | 494 kts | 149° |
| 2026-04-20 15:38 | 42.02943 | 21.12832 | 36964 ft | 493 kts | 151° |
| 2026-04-20 15:39 | 41.97082 | 21.17644 | 36946 ft | 494 kts | 150° |
| 2026-04-20 15:39 | 41.91236 | 21.22513 | 36950 ft | 495 kts | 150° |
| 2026-04-20 15:40 | 41.85399 | 21.27413 | 36945 ft | 495 kts | 150° |
| 2026-04-20 15:40 | 41.79557 | 21.32316 | 36930 ft | 495 kts | 150° |
| 2026-04-20 15:41 | 41.73711 | 21.37210 | 36943 ft | 496 kts | 150° |
| 2026-04-20 15:41 | 41.67863 | 21.42090 | 36923 ft | 495 kts | 150° |
| 2026-04-20 15:42 | 41.62022 | 21.46954 | 36950 ft | 493 kts | 150° |
| 2026-04-20 15:42 | 41.56200 | 21.51792 | 36941 ft | 493 kts | 150° |
| 2026-04-20 15:43 | 41.50373 | 21.56624 | 36941 ft | 493 kts | 150° |
| 2026-04-20 15:43 | 41.44549 | 21.61442 | 36924 ft | 493 kts | 150° |
| 2026-04-20 15:44 | 41.38741 | 21.66237 | 36947 ft | 494 kts | 150° |
| 2026-04-20 15:44 | 41.32899 | 21.71050 | 36951 ft | 494 kts | 150° |
| 2026-04-20 15:45 | 41.27032 | 21.75873 | 36954 ft | 495 kts | 150° |
| 2026-04-20 15:45 | 41.21165 | 21.80687 | 36961 ft | 496 kts | 150° |
| 2026-04-20 15:46 | 41.15281 | 21.85505 | 36955 ft | 496 kts | 150° |
| 2026-04-20 15:46 | 41.09398 | 21.90313 | 36943 ft | 497 kts | 150° |
| 2026-04-20 15:47 | 41.03557 | 21.95133 | 36945 ft | 496 kts | 149° |
| 2026-04-20 15:47 | 40.97734 | 22.00047 | 36945 ft | 495 kts | 149° |
| 2026-04-20 15:48 | 40.91925 | 22.04952 | 36941 ft | 494 kts | 149° |
| 2026-04-20 15:48 | 40.86126 | 22.09823 | 36940 ft | 493 kts | 149° |
| 2026-04-20 15:49 | 40.81304 | 22.13857 | 36937 ft | 493 kts | 149° |
| 2026-04-20 15:49 | 40.74571 | 22.19475 | 36938 ft | 492 kts | 149° |
| 2026-04-20 15:50 | 40.69728 | 22.23508 | 36934 ft | 492 kts | 149° |
| 2026-04-20 15:50 | 40.63944 | 22.28316 | 36932 ft | 492 kts | 149° |
| 2026-04-20 15:51 | 40.58153 | 22.33121 | 36934 ft | 492 kts | 149° |
| 2026-04-20 15:51 | 40.52356 | 22.37920 | 36933 ft | 492 kts | 149° |
| 2026-04-20 15:52 | 40.46557 | 22.42711 | 36931 ft | 493 kts | 149° |
| 2026-04-20 15:52 | 40.40739 | 22.47508 | 36928 ft | 493 kts | 149° |
| 2026-04-20 15:53 | 40.32006 | 22.54689 | 36931 ft | 494 kts | 149° |
| 2026-04-20 15:53 | 40.26182 | 22.59466 | 36936 ft | 494 kts | 149° |
| 2026-04-20 15:54 | 40.20363 | 22.64229 | 36936 ft | 493 kts | 149° |
| 2026-04-20 15:54 | 40.14537 | 22.68988 | 36937 ft | 493 kts | 149° |
| 2026-04-20 15:55 | 40.08715 | 22.73735 | 36934 ft | 493 kts | 149° |
| 2026-04-20 15:55 | 40.02931 | 22.78440 | 36935 ft | 493 kts | 149° |
| 2026-04-20 15:56 | 39.97115 | 22.83162 | 36936 ft | 492 kts | 149° |
| 2026-04-20 15:56 | 39.91284 | 22.87886 | 36934 ft | 492 kts | 149° |
| 2026-04-20 15:57 | 39.85463 | 22.92593 | 36934 ft | 492 kts | 149° |
| 2026-04-20 15:57 | 39.79639 | 22.97293 | 36934 ft | 492 kts | 149° |
| 2026-04-20 15:58 | 39.73807 | 23.01989 | 36936 ft | 492 kts | 149° |
| 2026-04-20 15:58 | 39.67981 | 23.06672 | 36940 ft | 492 kts | 149° |
| 2026-04-20 15:59 | 39.62146 | 23.11352 | 36939 ft | 492 kts | 149° |
| 2026-04-20 15:59 | 39.56356 | 23.15987 | 36941 ft | 492 kts | 149° |
| 2026-04-20 16:00 | 39.50530 | 23.20642 | 36936 ft | 492 kts | 149° |
| 2026-04-20 16:00 | 39.44695 | 23.25293 | 36940 ft | 492 kts | 149° |
| 2026-04-20 16:01 | 39.38870 | 23.29929 | 36933 ft | 492 kts | 149° |
| 2026-04-20 16:01 | 39.33037 | 23.34561 | 36934 ft | 492 kts | 149° |
| 2026-04-20 16:02 | 39.27210 | 23.39180 | 36923 ft | 492 kts | 149° |
| 2026-04-20 16:02 | 39.21379 | 23.43792 | 36909 ft | 492 kts | 150° |
| 2026-04-20 16:03 | 39.15543 | 23.48400 | 36902 ft | 492 kts | 150° |
| 2026-04-20 16:03 | 39.09705 | 23.53001 | 36921 ft | 492 kts | 150° |
| 2026-04-20 16:04 | 39.03897 | 23.57570 | 36927 ft | 492 kts | 150° |
| 2026-04-20 16:04 | 38.98054 | 23.62151 | 36930 ft | 492 kts | 152° |
| 2026-04-20 16:05 | 38.91767 | 23.65429 | 36942 ft | 486 kts | 169° |
| 2026-04-20 16:05 | 38.85119 | 23.66611 | 36956 ft | 482 kts | 178° |
| 2026-04-20 16:06 | 38.78437 | 23.67483 | 36890 ft | 485 kts | 177° |
| 2026-04-20 16:06 | 38.75672 | 23.67858 | 36492 ft | 491 kts | 177° |
| 2026-04-20 16:06 | 38.72304 | 23.68330 | 35981 ft | 491 kts | 177° |
| 2026-04-20 16:07 | 38.68910 | 23.68822 | 35500 ft | 489 kts | 176° |
| 2026-04-20 16:07 | 38.65547 | 23.69318 | 34999 ft | 485 kts | 176° |
| 2026-04-20 16:07 | 38.62188 | 23.69815 | 34533 ft | 485 kts | 176° |
| 2026-04-20 16:07 | 38.58827 | 23.70310 | 34055 ft | 485 kts | 176° |
| 2026-04-20 16:08 | 38.55512 | 23.70797 | 33537 ft | 485 kts | 176° |
| 2026-04-20 16:08 | 38.52161 | 23.71287 | 32992 ft | 485 kts | 176° |
| 2026-04-20 16:08 | 38.48764 | 23.71783 | 32358 ft | 487 kts | 176° |
| 2026-04-20 16:08 | 38.45375 | 23.72276 | 31722 ft | 491 kts | 176° |
| 2026-04-20 16:09 | 38.42022 | 23.72764 | 31035 ft | 493 kts | 176° |
| 2026-04-20 16:09 | 38.38610 | 23.73261 | 30279 ft | 492 kts | 176° |
| 2026-04-20 16:09 | 38.35217 | 23.73756 | 29470 ft | 490 kts | 176° |
| 2026-04-20 16:09 | 38.31833 | 23.74249 | 28635 ft | 488 kts | 176° |
| 2026-04-20 16:10 | 38.28463 | 23.74739 | 27837 ft | 485 kts | 176° |
| 2026-04-20 16:10 | 38.25124 | 23.75224 | 27034 ft | 483 kts | 176° |
| 2026-04-20 16:10 | 38.21790 | 23.75707 | 26267 ft | 480 kts | 176° |
| 2026-04-20 16:10 | 38.18495 | 23.76259 | 25507 ft | 479 kts | 169° |
| 2026-04-20 16:11 | 38.15373 | 23.77698 | 24755 ft | 480 kts | 152° |
| 2026-04-20 16:11 | 38.12596 | 23.80016 | 24090 ft | 476 kts | 145° |
| 2026-04-20 16:11 | 38.09899 | 23.82454 | 23355 ft | 473 kts | 144° |
| 2026-04-20 16:11 | 38.07232 | 23.84880 | 22549 ft | 470 kts | 145° |
| 2026-04-20 16:12 | 38.04573 | 23.87279 | 21741 ft | 467 kts | 145° |
| 2026-04-20 16:12 | 38.01924 | 23.89643 | 20964 ft | 463 kts | 146° |
| 2026-04-20 16:12 | 37.99291 | 23.91967 | 20209 ft | 460 kts | 146° |
| 2026-04-20 16:12 | 37.96663 | 23.94269 | 19472 ft | 456 kts | 146° |
| 2026-04-20 16:13 | 37.94057 | 23.96547 | 18751 ft | 453 kts | 146° |
| 2026-04-20 16:13 | 37.91511 | 23.98772 | 18035 ft | 449 kts | 146° |
| 2026-04-20 16:13 | 37.88950 | 24.01008 | 17233 ft | 446 kts | 146° |
| 2026-04-20 16:13 | 37.86513 | 24.03406 | 16428 ft | 444 kts | 134° |
| 2026-04-20 16:14 | 37.84757 | 24.06585 | 15672 ft | 439 kts | 114° |
| 2026-04-20 16:14 | 37.83854 | 24.10232 | 14944 ft | 433 kts | 97° |
| 2026-04-20 16:14 | 37.83800 | 24.13995 | 14228 ft | 425 kts | 80° |
| 2026-04-20 16:14 | 37.84558 | 24.17563 | 13479 ft | 417 kts | 63° |
| 2026-04-20 16:15 | 37.86180 | 24.20517 | 12699 ft | 406 kts | 41° |
| 2026-04-20 16:15 | 37.88433 | 24.22594 | 11941 ft | 397 kts | 25° |
| 2026-04-20 16:15 | 37.91006 | 24.23768 | 11194 ft | 390 kts | 10° |
| 2026-04-20 16:15 | 37.93647 | 24.24435 | 10519 ft | 386 kts | 13° |
| 2026-04-20 16:16 | 37.96223 | 24.25179 | 10269 ft | 369 kts | 6° |
| 2026-04-20 16:16 | 37.98695 | 24.25712 | 10141 ft | 353 kts | 10° |
| 2026-04-20 16:16 | 38.01038 | 24.26407 | 10020 ft | 338 kts | 12° |
| 2026-04-20 16:16 | 38.03263 | 24.27105 | 10001 ft | 321 kts | 12° |
| 2026-04-20 16:17 | 38.05375 | 24.27779 | 9913 ft | 308 kts | 12° |
| 2026-04-20 16:17 | 38.07438 | 24.28444 | 9502 ft | 303 kts | 12° |
| 2026-04-20 16:17 | 38.09465 | 24.29100 | 9107 ft | 297 kts | 12° |
| 2026-04-20 16:17 | 38.11452 | 24.29747 | 8724 ft | 293 kts | 12° |
| 2026-04-20 16:18 | 38.13416 | 24.30388 | 8341 ft | 289 kts | 12° |
| 2026-04-20 16:18 | 38.15324 | 24.31012 | 7970 ft | 285 kts | 12° |
| 2026-04-20 16:18 | 38.17247 | 24.31519 | 7561 ft | 279 kts | 359° |
| 2026-04-20 16:18 | 38.19100 | 24.31059 | 7184 ft | 270 kts | 332° |
| 2026-04-20 16:19 | 38.20523 | 24.29593 | 6816 ft | 263 kts | 304° |
| 2026-04-20 16:19 | 38.21204 | 24.27483 | 6455 ft | 259 kts | 277° |
| 2026-04-20 16:19 | 38.20997 | 24.25234 | 6074 ft | 259 kts | 251° |
| 2026-04-20 16:19 | 38.20274 | 24.23157 | 5718 ft | 256 kts | 246° |
| 2026-04-20 16:20 | 38.19486 | 24.21130 | 5335 ft | 255 kts | 245° |
| 2026-04-20 16:20 | 38.18694 | 24.19121 | 4968 ft | 254 kts | 245° |
| 2026-04-20 16:20 | 38.17885 | 24.17136 | 4581 ft | 253 kts | 238° |
| 2026-04-20 16:20 | 38.16706 | 24.15478 | 4215 ft | 253 kts | 224° |
| 2026-04-20 16:21 | 38.15374 | 24.14054 | 4017 ft | 244 kts | 220° |
| 2026-04-20 16:21 | 38.14062 | 24.12776 | 3982 ft | 232 kts | 219° |
| 2026-04-20 16:21 | 38.12786 | 24.11560 | 3979 ft | 229 kts | 219° |
| 2026-04-20 16:21 | 38.11509 | 24.10347 | 4003 ft | 230 kts | 219° |
| 2026-04-20 16:22 | 38.10219 | 24.09118 | 3958 ft | 234 kts | 219° |
| 2026-04-20 16:22 | 38.08912 | 24.07871 | 3722 ft | 237 kts | 219° |
| 2026-04-20 16:22 | 38.07596 | 24.06616 | 3421 ft | 235 kts | 219° |
| 2026-04-20 16:22 | 38.06300 | 24.05382 | 3136 ft | 229 kts | 219° |
| 2026-04-20 16:23 | 38.05065 | 24.04204 | 2827 ft | 221 kts | 218° |
| 2026-04-20 16:23 | 38.03863 | 24.03058 | 2541 ft | 212 kts | 218° |
| 2026-04-20 16:23 | 38.02707 | 24.01954 | 2256 ft | 204 kts | 218° |
| 2026-04-20 16:23 | 38.01596 | 24.00894 | 1979 ft | 193 kts | 217° |
| 2026-04-20 16:24 | 38.00560 | 23.99905 | 1727 ft | 180 kts | 217° |
| 2026-04-20 16:24 | 37.99573 | 23.98963 | 1486 ft | 176 kts | 217° |
| 2026-04-20 16:24 | 37.98597 | 23.98033 | 1277 ft | 175 kts | 217° |
| 2026-04-20 16:24 | 37.97637 | 23.97116 | 1029 ft | 169 kts | 217° |
| 2026-04-20 16:25 | 37.96756 | 23.96275 | 863 ft | 150 kts | 218° |
| 2026-04-20 16:25 | 37.95953 | 23.95507 | 649 ft | 135 kts | 216° |
| 2026-04-20 16:25 | 37.95237 | 23.94826 | 469 ft | 127 kts | 217° |
| 2026-04-20 16:25 | 37.94541 | 23.94160 | 327 ft | 127 kts | 217° |
| 2026-04-20 16:26 | 37.93895 | 23.93539 | 293 ft | 100 kts | 217° |
| 2026-04-20 16:26 | 37.93480 | 23.93155 | 292 ft | 29 kts | 216° |
| 2026-04-20 16:26 | 37.93321 | 23.93006 | 292 ft | 27 kts | 216° |
| 2026-04-20 16:26 | 37.93165 | 23.92882 | 288 ft | 26 kts | 202° |
| 2026-04-20 16:27 | 37.92998 | 23.92829 | 296 ft | 24 kts | 183° |
| 2026-04-20 16:27 | 37.92942 | 23.92915 | 299 ft | 13 kts | 62° |
| 2026-04-20 16:27 | 37.93009 | 23.92985 | 300 ft | 13 kts | 35° |
| 2026-04-20 16:27 | 37.93080 | 23.93049 | 298 ft | 12 kts | 36° |
| 2026-04-20 16:28 | 37.93149 | 23.93112 | 301 ft | 12 kts | 36° |
| 2026-04-20 16:28 | 37.93213 | 23.93177 | 297 ft | 12 kts | 40° |
| 2026-04-20 16:28 | 37.93275 | 23.93243 | 299 ft | 11 kts | 38° |
| 2026-04-20 16:28 | 37.93339 | 23.93299 | 299 ft | 11 kts | 35° |
| 2026-04-20 16:29 | 37.93401 | 23.93355 | 299 ft | 11 kts | 37° |
| 2026-04-20 16:29 | 37.93431 | 23.93433 | 298 ft | 10 kts | 107° |
| 2026-04-20 16:29 | 37.93390 | 23.93508 | 302 ft | 10 kts | 126° |
| 2026-04-20 16:29 | 37.93348 | 23.93578 | 301 ft | 10 kts | 128° |
| 2026-04-20 16:30 | 37.93304 | 23.93652 | 300 ft | 15 kts | 127° |
| 2026-04-20 16:30 | 37.93226 | 23.93784 | 300 ft | 20 kts | 127° |
| 2026-04-20 16:30 | 37.93145 | 23.93920 | 302 ft | 19 kts | 127° |
| 2026-04-20 16:30 | 37.93066 | 23.94050 | 302 ft | 18 kts | 128° |
| 2026-04-20 16:31 | 37.92990 | 23.94177 | 300 ft | 18 kts | 127° |
| 2026-04-20 16:31 | 37.92917 | 23.94300 | 302 ft | 17 kts | 127° |
| 2026-04-20 16:31 | 37.92891 | 23.94432 | 300 ft | 16 kts | 60° |
| 2026-04-20 16:31 | 37.92986 | 23.94506 | 301 ft | 16 kts | 29° |
| 2026-04-20 16:32 | 37.93075 | 23.94583 | 300 ft | 15 kts | 18° |
| 2026-04-20 16:32 | 37.93179 | 23.94594 | 301 ft | 15 kts | 2° |
| 2026-04-20 16:32 | 37.93241 | 23.94616 | 302 ft | 14 kts | 34° |
| 2026-04-20 16:32 | 37.93342 | 23.94714 | 301 ft | 13 kts | 38° |
| 2026-04-20 16:33 | 37.93392 | 23.94761 | 301 ft | 13 kts | 37° |
| 2026-04-20 16:33 | 37.93464 | 23.94829 | 300 ft | 13 kts | 37° |
| 2026-04-20 16:33 | 37.93524 | 23.94886 | 300 ft | 11 kts | 37° |
| 2026-04-20 16:33 | 37.93567 | 23.94902 | 301 ft | 4 kts | 323° |
| 2026-04-20 16:34 | 37.93583 | 23.94875 | 300 ft | 4 kts | 307° |
| 2026-04-20 16:34 | 37.93599 | 23.94849 | 300 ft | 4 kts | 307° |
| 2026-04-20 16:34 | 37.93605 | 23.94839 | 300 ft | 0 kts | 307° |